Time;durP1;ratioP1;P1;durP2;ratioP2;P2;SDS_P1;SDS_P2;PMS_P1;PMS_P2;Temp;Humidity;BMP_temperature;BMP_pressure;BME280_temperature;BME280_humidity;BME280_pressure;Samples;Min_cycle;Max_cycle;Signal;HPM_P1;HPM_P2
2022/07/20 00:02:09;;;;;;;3.63;2.08;;;;;;;24.50;90.41;101518.69;4961815;29;20102;-74
2022/07/20 00:04:55;;;;;;;3.50;2.00;;;;;;;24.11;95.26;101524.69;4960230;28;20115;-75
2022/07/20 00:07:41;;;;;;;3.03;1.77;;;;;;;24.06;98.61;101523.25;4956476;29;20027;-73
2022/07/20 00:13:31;;;;;;;3.20;1.90;;;;;;;24.03;99.58;101516.25;4957005;28;20035;-75
2022/07/20 00:16:17;;;;;;;4.95;1.90;;;;;;;24.05;97.39;101513.47;4957834;29;20469;-74
2022/07/20 00:19:03;;;;;;;2.13;1.92;;;;;;;23.51;99.64;101516.72;4957528;29;20027;-74
2022/07/20 00:21:49;;;;;;;4.93;1.92;;;;;;;23.75;97.23;101508.09;4957095;29;20430;-74
2022/07/20 00:24:36;;;;;;;3.45;2.00;;;;;;;23.83;98.82;101507.66;4957374;28;20114;-75
2022/07/20 00:27:22;;;;;;;3.78;2.00;;;;;;;24.01;98.35;101514.63;4957334;29;20055;-74
2022/07/20 00:30:09;;;;;;;3.35;2.00;;;;;;;23.78;98.80;101512.44;4943524;29;20035;-74
2022/07/20 00:32:54;;;;;;;4.25;2.13;;;;;;;23.55;99.86;101520.94;4956858;29;20031;-74
2022/07/20 00:35:40;;;;;;;6.68;2.17;;;;;;;23.32;100.00;101517.78;4958070;29;20350;-75
2022/07/20 00:38:26;;;;;;;3.47;1.98;;;;;;;23.17;100.00;101518.63;4955896;29;20428;-75
2022/07/20 00:41:12;;;;;;;5.22;2.00;;;;;;;23.14;100.00;101510.78;4957490;29;20043;-75
2022/07/20 00:43:58;;;;;;;5.30;2.10;;;;;;;;;;4956493;28;20118;-74
2022/07/20 00:46:46;;;;;;;3.83;2.15;;;;;;;23.54;100.00;101516.56;4956636;29;20099;-73
2022/07/20 00:49:32;;;;;;;2.20;2.00;;;;;;;23.21;100.00;101516.66;4956180;29;20110;-74
2022/07/20 00:52:17;;;;;;;2.60;1.92;;;;;;;23.01;100.00;101511.56;4956625;29;20110;-75
2022/07/20 00:55:04;;;;;;;2.95;2.20;;;;;;;22.77;100.00;101519.13;4956226;28;20466;-74
2022/07/20 00:57:49;;;;;;;4.90;2.10;;;;;;;22.77;100.00;101512.91;4956730;29;20034;-74
2022/07/20 01:00:35;;;;;;;2.22;1.90;;;;;;;22.86;100.00;101521.28;4956386;29;20389;-74
2022/07/20 01:03:21;;;;;;;5.65;2.00;;;;;;;22.05;100.00;101516.81;4957093;28;20365;-75
2022/07/20 01:06:08;;;;;;;4.38;2.15;;;;;;;22.07;100.00;101517.63;4942890;29;20027;-74
2022/07/20 01:08:55;;;;;;;3.08;2.10;;;;;;;21.97;100.00;101513.69;4956071;29;20023;-74
2022/07/20 01:11:40;;;;;;;4.38;2.30;;;;;;;22.16;100.00;101519.78;4956728;29;20041;-75
2022/07/20 01:14:26;;;;;;;3.67;2.08;;;;;;;22.38;100.00;101523.06;4956480;28;20496;-74
2022/07/20 01:17:12;;;;;;;2.45;2.10;;;;;;;22.21;100.00;101523.97;4956217;28;20139;-75
2022/07/20 01:19:58;;;;;;;4.50;2.17;;;;;;;22.50;100.00;101520.63;4956430;29;20067;-75
2022/07/20 01:22:46;;;;;;;4.90;2.35;;;;;;;22.64;100.00;101525.22;4956630;29;20054;-73
2022/07/20 01:25:35;;;;;;;4.53;2.30;;;;;;;22.47;100.00;101520.78;4956203;29;20033;-73
2022/07/20 01:28:20;;;;;;;4.95;2.17;;;;;;;22.24;100.00;101523.81;4956549;29;20023;-74
2022/07/20 01:31:06;;;;;;;2.90;1.95;;;;;;;22.01;100.00;101521.47;4955819;29;20466;-74
2022/07/20 01:33:52;;;;;;;4.07;2.00;;;;;;;22.30;100.00;101530.63;4955941;28;20412;-75
2022/07/20 01:36:38;;;;;;;3.42;2.00;;;;;;;22.23;100.00;101524.72;4956492;29;20039;-74
2022/07/20 01:39:23;;;;;;;2.40;1.80;;;;;;;22.71;100.00;101526.63;4956738;29;20050;-74
2022/07/20 01:42:09;;;;;;;3.72;2.20;;;;;;;22.42;100.00;101519.28;4956040;29;20030;-74
2022/07/20 01:44:55;;;;;;;3.47;2.15;;;;;;;22.54;100.00;101523.97;4955583;28;20347;-75
2022/07/20 01:47:41;;;;;;;2.35;2.08;;;;;;;22.70;100.00;101530.22;4955249;29;20038;-75
2022/07/20 01:50:27;;;;;;;2.63;1.90;;;;;;;22.45;100.00;101519.97;4956167;29;20106;-74
2022/07/20 01:53:13;;;;;;;3.53;1.92;;;;;;;22.43;100.00;101521.84;4942294;28;20034;-74
2022/07/20 01:55:58;;;;;;;5.85;1.90;;;;;;;22.43;100.00;101523.69;4956158;29;20089;-74
2022/07/20 01:58:44;;;;;;;5.55;2.00;;;;;;;22.43;100.00;101513.00;4956369;29;20062;-74
2022/07/20 02:01:30;;;;;;;5.35;2.30;;;;;;;22.49;100.00;101520.69;4956069;29;20432;-73
2022/07/20 02:04:16;;;;;;;4.38;1.92;;;;;;;22.31;100.00;101519.84;4956278;28;20046;-73
2022/07/20 02:07:01;;;;;;;5.47;2.00;;;;;;;22.53;100.00;101519.59;4944210;29;20106;-74
2022/07/20 02:09:47;;;;;;;3.53;2.33;;;;;;;22.26;100.00;101527.25;4959718;29;20024;-75
2022/07/20 02:12:33;;;;;;;2.50;2.03;;;;;;;22.33;100.00;101525.97;4946154;29;20117;-74
2022/07/20 02:18:23;;;;;;;3.90;2.08;;;;;;;22.46;100.00;101518.16;4959150;29;20023;-74
2022/07/20 02:21:09;;;;;;;4.75;2.40;;;;;;;22.55;100.00;101510.53;4959903;29;20082;-75
2022/07/20 02:23:55;;;;;;;6.13;2.00;;;;;;;22.57;100.00;101511.34;4959262;28;20089;-74
2022/07/20 02:26:41;;;;;;;5.00;2.47;;;;;;;22.65;100.00;101517.13;4958695;29;20062;-74
2022/07/20 02:29:27;;;;;;;9.02;3.17;;;;;;;22.89;100.00;101521.13;4959216;29;20109;-73
2022/07/20 02:32:13;;;;;;;6.88;2.70;;;;;;;23.14;100.00;101515.25;4959347;29;20369;-74
2022/07/20 02:34:58;;;;;;;3.50;2.47;;;;;;;23.10;100.00;101516.38;4959643;28;20370;-75
2022/07/20 02:37:44;;;;;;;6.22;2.47;;;;;;;22.94;100.00;101524.41;4959612;29;20027;-74
2022/07/20 02:40:30;;;;;;;4.47;2.53;;;;;;;22.86;100.00;101521.28;4958998;29;20114;-75
2022/07/20 02:43:16;;;;;;;3.50;2.45;;;;;;;23.07;100.00;101519.25;4959084;28;20097;-74
2022/07/20 02:46:02;;;;;;;2.92;1.88;;;;;;;22.50;100.00;101517.06;4958932;29;20423;-75
2022/07/20 02:48:48;;;;;;;2.65;2.20;;;;;;;22.40;100.00;101521.16;4945878;29;20455;-74
2022/07/20 02:51:34;;;;;;;4.28;2.20;;;;;;;22.74;100.00;101529.09;4958953;29;20027;-74
2022/07/20 02:54:19;;;;;;;4.78;2.15;;;;;;;22.65;100.00;101532.28;4959442;28;20042;-75
2022/07/20 02:57:05;;;;;;;4.00;2.28;;;;;;;22.56;100.00;101532.78;4958832;29;20406;-74
2022/07/20 02:59:51;;;;;;;5.00;2.30;;;;;;;22.79;100.00;101537.75;4959004;29;20126;-74
2022/07/20 03:02:37;;;;;;;6.93;2.30;;;;;;;22.77;100.00;101535.16;4958173;29;20020;-74
2022/07/20 03:05:23;;;;;;;4.65;2.10;;;;;;;22.96;100.00;101538.56;4958950;28;20040;-75
2022/07/20 03:08:08;;;;;;;6.07;2.63;;;;;;;22.61;100.00;101541.41;4958203;29;20028;-75
2022/07/20 03:10:54;;;;;;;6.30;2.22;;;;;;;22.72;100.00;101544.38;4945499;29;20035;-74
2022/07/20 03:13:40;;;;;;;7.55;2.15;;;;;;;22.70;100.00;101551.59;4932289;28;20441;-74
2022/07/20 03:16:26;;;;;;;4.55;2.28;;;;;;;22.60;100.00;101551.25;4958890;29;20027;-74
2022/07/20 03:19:11;;;;;;;3.75;2.58;;;;;;;22.81;100.00;101550.09;4958437;29;20458;-73
2022/07/20 03:21:57;;;;;;;7.28;2.45;;;;;;;22.72;100.00;101563.97;4958746;29;20454;-74
2022/07/20 03:24:43;;;;;;;6.70;2.22;;;;;;;22.58;100.00;101558.47;4958308;28;20463;-74
2022/07/20 03:27:29;;;;;;;5.88;2.33;;;;;;;22.62;100.00;101560.03;4957196;29;20047;-74
2022/07/20 03:30:16;;;;;;;3.65;2.08;;;;;;;22.63;100.00;101560.91;4958473;29;20027;-75
2022/07/20 03:33:02;;;;;;;4.85;2.20;;;;;;;22.87;100.00;101564.94;4957990;29;20109;-73
2022/07/20 03:35:47;;;;;;;3.70;2.42;;;;;;;22.69;100.00;101566.78;4944200;29;20468;-75
2022/07/20 03:38:33;;;;;;;4.68;2.60;;;;;;;22.71;100.00;101564.88;4958105;29;20057;-74
2022/07/20 03:41:19;;;;;;;3.70;2.50;;;;;;;22.85;100.00;101569.47;4958536;29;20032;-74
2022/07/20 03:44:04;;;;;;;6.35;2.35;;;;;;;22.68;100.00;101565.06;4958020;28;20023;-74
2022/07/20 03:46:50;;;;;;;4.60;2.50;;;;;;;22.81;100.00;101570.59;4957873;29;20386;-74
2022/07/20 03:49:36;;;;;;;11.30;2.97;;;;;;;22.81;100.00;101573.25;4957987;29;20019;-75
2022/07/20 03:52:22;;;;;;;14.63;5.10;;;;;;;22.51;100.00;101553.56;4944484;29;20174;-75
2022/07/20 03:55:08;;;;;;;16.27;6.30;;;;;;;22.55;100.00;101568.47;4957616;28;20035;-74
2022/07/20 03:57:54;;;;;;;19.02;7.22;;;;;;;22.48;100.00;101564.38;4957422;29;20089;-75
2022/07/20 04:00:40;;;;;;;17.50;6.70;;;;;;;22.53;100.00;101563.22;4957611;28;20039;-74
2022/07/20 04:03:26;;;;;;;14.57;6.70;;;;;;;22.76;100.00;101570.88;4957826;28;20039;-75
2022/07/20 04:06:11;;;;;;;13.73;6.55;;;;;;;22.67;100.00;101568.66;4958247;29;20023;-74
2022/07/20 04:08:57;;;;;;;18.17;6.63;;;;;;;22.69;100.00;101579.25;4957799;29;20454;-74
2022/07/20 04:11:43;;;;;;;14.30;5.85;;;;;;;22.49;100.00;101568.78;4957411;29;20073;-75
2022/07/20 04:14:29;;;;;;;22.40;6.93;;;;;;;22.76;100.00;101581.56;4943072;29;20462;-74
2022/07/20 04:17:14;;;;;;;16.98;7.03;;;;;;;22.53;100.00;101573.91;4958182;29;20027;-75
2022/07/20 04:20:00;;;;;;;15.88;6.25;;;;;;;22.77;100.00;101580.59;4957065;29;20027;-74
2022/07/20 04:22:46;;;;;;;11.07;5.25;;;;;;;22.66;100.00;101569.63;4944046;29;20101;-74
2022/07/20 04:25:32;;;;;;;12.90;5.30;;;;;;;22.73;100.00;101578.16;4956280;29;20513;-74
2022/07/20 04:28:18;;;;;;;11.88;5.15;;;;;;;22.56;100.00;101571.06;4957597;28;20343;-74
2022/07/20 04:31:03;;;;;;;11.93;4.93;;;;;;;22.95;100.00;101582.25;4957203;29;20178;-74
2022/07/20 04:33:49;;;;;;;20.15;5.38;;;;;;;23.06;100.00;101582.53;4957867;28;20027;-74
2022/07/20 04:36:35;;;;;;;12.63;4.63;;;;;;;23.28;100.00;101583.09;4944108;29;20031;-74
2022/07/20 04:39:21;;;;;;;14.02;5.07;;;;;;;23.32;100.00;101583.78;4957266;29;20023;-74
2022/07/20 04:42:07;;;;;;;13.95;5.55;;;;;;;23.26;100.00;101585.00;4957174;29;20046;-74
2022/07/20 04:44:52;;;;;;;16.13;6.43;;;;;;;23.23;100.00;101581.63;4956651;28;20374;-75
2022/07/20 04:47:38;;;;;;;13.00;6.20;;;;;;;23.14;100.00;101582.09;4957740;29;20426;-74
2022/07/20 04:50:24;;;;;;;17.90;5.57;;;;;;;23.05;100.00;101580.81;4956455;29;20569;-75
2022/07/20 04:53:10;;;;;;;14.65;8.50;;;;;;;23.42;100.00;101581.47;4956520;28;20028;-74
2022/07/20 04:55:56;;;;;;;10.75;5.28;;;;;;;23.42;100.00;101580.50;4956430;29;20106;-74
2022/07/20 04:58:42;;;;;;;18.17;5.90;;;;;;;22.62;100.00;101576.06;4956594;29;20027;-74
2022/07/20 05:01:28;;;;;;;13.88;5.35;;;;;;;22.85;100.00;101585.50;4956067;29;20031;-75
2022/07/20 05:04:13;;;;;;;14.60;5.63;;;;;;;23.16;100.00;101582.88;4956463;28;20027;-74
2022/07/20 05:06:59;;;;;;;18.45;6.53;;;;;;;23.08;100.00;101583.28;4957254;29;20039;-75
2022/07/20 05:09:45;;;;;;;22.73;9.10;;;;;;;23.46;100.00;101581.19;4958747;29;20430;-74
2022/07/20 05:12:31;;;;;;;20.67;10.63;;;;;;;23.69;100.00;101588.75;4958399;29;20065;-75
2022/07/20 05:15:16;;;;;;;17.27;6.30;;;;;;;23.16;100.00;101582.88;4955779;28;20446;-74
2022/07/20 05:18:02;;;;;;;16.10;6.18;;;;;;;23.16;100.00;101585.56;4956767;29;20089;-74
2022/07/20 05:20:48;;;;;;;22.38;8.57;;;;;;;23.81;100.00;101588.06;4956131;29;20035;-74
2022/07/20 05:23:34;;;;;;;22.73;7.97;;;;;;;23.88;100.00;101599.25;4956144;28;20027;-74
2022/07/20 05:26:20;;;;;;;15.63;6.40;;;;;;;23.93;100.00;101598.09;4956467;29;20078;-74
2022/07/20 05:29:05;;;;;;;12.57;5.72;;;;;;;23.96;100.00;101597.03;4956538;29;20351;-75
2022/07/20 05:31:51;;;;;;;12.00;5.63;;;;;;;23.90;100.00;101594.69;4955919;29;20110;-74
2022/07/20 05:34:37;;;;;;;10.07;4.40;;;;;;;24.14;100.00;101596.81;4943169;29;20110;-74
2022/07/20 05:37:24;;;;;;;12.57;4.05;;;;;;;24.29;100.00;101606.63;4956280;29;20035;-74
2022/07/20 05:40:10;;;;;;;6.30;3.40;;;;;;;24.15;100.00;101611.06;4955987;28;20043;-75
2022/07/20 05:42:56;;;;;;;10.35;3.30;;;;;;;24.20;100.00;101608.97;4946875;29;20031;-75
2022/07/20 05:45:42;;;;;;;10.82;3.80;;;;;;;23.97;100.00;101607.66;4960666;29;20208;-74
2022/07/20 05:48:30;;;;;;;12.90;3.47;;;;;;;23.99;100.00;101607.56;4960403;29;20023;-75
2022/07/20 05:51:15;;;;;;;7.20;3.30;;;;;;;23.96;100.00;101605.06;4960214;29;20039;-74
2022/07/20 05:54:01;;;;;;;14.20;3.40;;;;;;;24.28;100.00;101604.91;4960559;28;20035;-76
2022/07/20 05:56:47;;;;;;;10.55;3.35;;;;;;;24.39;100.00;101604.25;4960269;29;20027;-75
2022/07/20 05:59:32;;;;;;;11.75;4.05;;;;;;;24.36;100.00;101607.09;4960493;29;20042;-75
2022/07/20 06:02:18;;;;;;;8.13;3.80;;;;;;;24.40;100.00;101601.47;4945691;29;20050;-76
2022/07/20 06:05:04;;;;;;;11.40;3.50;;;;;;;24.42;100.00;101610.28;4960354;28;20027;-75
2022/07/20 06:07:53;;;;;;;12.40;4.07;;;;;;;24.78;99.52;101604.50;4959729;29;20031;-74
2022/07/20 06:10:39;;;;;;;8.85;3.00;;;;;;;24.77;96.89;101600.97;4946622;29;20027;-75
2022/07/20 06:13:25;;;;;;;11.60;3.53;;;;;;;24.66;96.22;101600.75;4946066;28;20035;-75
2022/07/20 06:16:10;;;;;;;8.98;3.08;;;;;;;24.86;95.94;101592.34;4959324;29;20023;-75
2022/07/20 06:18:56;;;;;;;8.75;3.67;;;;;;;24.69;98.03;101595.22;4959812;29;20035;-75
2022/07/20 06:21:42;;;;;;;9.38;3.13;;;;;;;25.16;96.85;101611.00;4959421;29;20031;-75
2022/07/20 06:24:27;;;;;;;8.35;3.80;;;;;;;25.37;92.15;101604.28;4945518;29;20462;-74
2022/07/20 06:27:13;;;;;;;10.80;4.25;;;;;;;25.39;91.81;101613.13;4945455;29;20059;-74
2022/07/20 06:30:00;;;;;;;5.40;3.15;;;;;;;25.44;91.36;101606.47;4959645;29;20069;-74
2022/07/20 06:32:45;;;;;;;7.47;2.90;;;;;;;25.53;92.48;101605.91;4945878;29;20128;-75
2022/07/20 06:35:31;;;;;;;7.68;2.95;;;;;;;25.82;85.91;101607.53;4959379;29;20051;-75
2022/07/20 06:38:17;;;;;;;7.57;2.60;;;;;;;25.84;86.21;101604.75;4958687;29;20089;-75
2022/07/20 06:41:03;;;;;;;8.75;2.60;;;;;;;26.28;83.08;101603.47;4945811;29;20027;-75
2022/07/20 06:43:48;;;;;;;11.23;2.90;;;;;;;25.88;85.43;101603.56;4959451;28;20426;-75
2022/07/20 06:46:34;;;;;;;8.65;2.70;;;;;;;26.23;83.93;101605.63;4958701;29;20035;-74
2022/07/20 06:49:20;;;;;;;16.63;13.80;;;;;;;26.55;81.51;101604.25;4959295;29;20071;-74
2022/07/20 06:52:06;;;;;;;14.35;7.28;;;;;;;26.32;81.19;101601.47;4958112;28;20031;-76
2022/07/20 06:54:52;;;;;;;6.65;2.83;;;;;;;26.70;79.82;101608.63;4958508;28;20110;-75
2022/07/20 06:57:38;;;;;;;7.20;2.90;;;;;;;26.86;78.16;101605.69;4945054;29;20462;-75
2022/07/20 07:00:24;;;;;;;9.75;3.08;;;;;;;26.81;77.36;101603.31;4958438;29;20133;-75
2022/07/20 07:03:10;;;;;;;5.18;3.05;;;;;;;26.94;73.70;101595.25;4958883;29;20426;-75
2022/07/20 07:05:55;;;;;;;6.15;2.72;;;;;;;27.10;72.96;101602.13;4959860;29;20033;-79
2022/07/20 07:08:41;;;;;;;14.25;3.47;;;;;;;27.20;68.38;101605.88;4958730;28;20034;-75
2022/07/20 07:11:27;;;;;;;5.78;2.70;;;;;;;26.77;68.49;101603.66;4958164;29;20023;-75
2022/07/20 07:14:13;;;;;;;4.25;2.33;;;;;;;27.30;71.43;101606.09;4958123;28;20031;-75
2022/07/20 07:16:58;;;;;;;5.43;2.50;;;;;;;27.52;70.83;101613.44;4958674;29;20035;-75
2022/07/20 07:19:44;;;;;;;3.97;2.60;;;;;;;27.29;67.26;101607.91;4957820;28;20027;-74
2022/07/20 07:22:30;;;;;;;6.30;2.22;;;;;;;27.28;64.03;101605.31;4958211;29;20043;-76
2022/07/20 07:25:16;;;;;;;2.40;2.20;;;;;;;27.18;68.11;101605.13;4957837;28;20038;-74
2022/07/20 07:28:02;;;;;;;5.97;2.40;;;;;;;28.05;65.21;101602.25;4958157;29;20051;-74
2022/07/20 07:30:51;;;;;;;4.75;2.47;;;;;;;27.98;65.32;101606.38;4944459;29;20446;-75
2022/07/20 07:33:37;;;;;;;6.57;2.30;;;;;;;28.31;64.50;101604.66;4958096;28;20067;-75
2022/07/20 07:36:23;;;;;;;9.00;2.33;;;;;;;28.19;61.56;101611.00;4944576;29;20031;-74
2022/07/20 07:39:08;;;;;;;5.68;3.35;;;;;;;28.18;61.77;101611.97;4958000;28;20469;-75
2022/07/20 07:41:54;;;;;;;4.15;2.30;;;;;;;28.40;57.55;101606.63;4958459;29;20117;-75
2022/07/20 07:44:40;;;;;;;5.30;2.45;;;;;;;28.81;56.21;101598.06;4958235;28;20023;-75
2022/07/20 07:47:26;;;;;;;9.02;6.28;;;;;;;28.97;54.88;101601.25;4958503;29;20457;-75
2022/07/20 07:50:12;;;;;;;5.82;2.15;;;;;;;29.12;54.26;101597.31;4957569;29;20417;-75
2022/07/20 07:52:58;;;;;;;3.70;2.17;;;;;;;29.06;54.35;101601.41;4958112;29;20023;-75
2022/07/20 07:55:43;;;;;;;6.75;2.55;;;;;;;28.29;58.30;101601.22;4957461;29;20019;-75
2022/07/20 07:58:29;;;;;;;6.50;2.20;;;;;;;29.35;56.41;101596.31;4957343;29;20058;-75
2022/07/20 08:01:15;;;;;;;5.15;2.00;;;;;;;29.80;51.21;101585.31;4957990;29;20066;-75
2022/07/20 08:04:03;;;;;;;2.53;1.85;;;;;;;30.03;49.63;101591.47;4956428;28;20090;-74
2022/07/20 08:06:50;;;;;;;3.78;2.08;;;;;;;29.67;50.62;101590.03;4957237;29;20023;-74
2022/07/20 08:09:36;;;;;;;4.57;2.38;;;;;;;30.43;50.12;101585.28;4957308;29;20035;-75
2022/07/20 08:12:23;;;;;;;10.85;2.20;;;;;;;30.88;46.37;101584.00;4958055;29;20058;-75
2022/07/20 08:15:10;;;;;;;3.97;1.90;;;;;;;31.03;42.32;101576.34;4956932;28;20086;-75
2022/07/20 08:17:56;;;;;;;2.75;1.80;;;;;;;30.83;41.76;101578.09;4957255;29;20027;-75
2022/07/20 08:20:41;;;;;;;5.65;2.20;;;;;;;30.85;42.53;101569.84;4957376;29;20099;-74
2022/07/20 08:23:27;;;;;;;6.38;1.83;;;;;;;31.41;41.52;101572.94;4957652;28;20039;-75
2022/07/20 08:26:13;;;;;;;4.30;1.90;;;;;;;31.75;40.31;101583.25;4956880;29;20055;-74
2022/07/20 08:29:00;;;;;;;5.47;3.45;;;;;;;32.04;39.04;101577.84;4956844;29;20034;-74
2022/07/20 08:31:46;;;;;;;5.30;3.08;;;;;;;32.03;38.43;101576.16;4955766;29;20031;-75
2022/07/20 08:34:32;;;;;;;7.60;2.10;;;;;;;31.56;36.86;101583.22;4943257;29;20463;-73
2022/07/20 08:37:18;;;;;;;7.25;1.98;;;;;;;32.38;36.36;101580.00;4956489;29;20031;-74
2022/07/20 08:40:05;;;;;;;2.65;2.00;;;;;;;32.03;37.78;101578.88;4956932;29;20042;-73
2022/07/20 08:42:51;;;;;;;32.85;3.78;;;;;;;32.55;36.69;101578.41;4956613;29;20027;-74
2022/07/20 08:45:37;;;;;;;6.07;1.80;;;;;;;32.60;36.25;101566.09;4956487;29;20027;-74
2022/07/20 08:48:25;;;;;;;3.83;1.80;;;;;;;32.82;33.88;101559.50;4943411;29;20109;-74
2022/07/20 08:51:11;;;;;;;2.17;1.63;;;;;;;32.75;33.98;101564.59;4957053;29;20419;-75
2022/07/20 08:53:56;;;;;;;4.57;2.50;;;;;;;33.13;32.74;101569.03;4942396;29;20082;-74
2022/07/20 08:56:42;;;;;;;3.50;1.63;;;;;;;32.90;32.04;101565.03;4943249;29;20154;-75
2022/07/20 08:59:28;;;;;;;5.63;1.90;;;;;;;32.46;32.51;101565.72;4956539;29;20027;-75
2022/07/20 09:02:15;;;;;;;1.95;1.52;;;;;;;32.80;31.43;101559.59;4956056;29;20031;-74
2022/07/20 09:05:01;;;;;;;3.17;1.70;;;;;;;32.82;31.40;101554.06;4943641;29;20023;-74
2022/07/20 09:07:49;;;;;;;2.03;1.70;;;;;;;32.56;31.55;101553.81;4942891;29;20505;-75
2022/07/20 09:10:38;;;;;;;3.88;2.00;;;;;;;32.82;33.21;101554.06;4956665;29;20019;-75
2022/07/20 09:13:28;;;;;;;3.33;1.90;;;;;;;32.85;32.10;101548.31;4955804;28;20035;-75
2022/07/20 09:16:14;;;;;;;5.05;4.45;;;;;;;33.25;32.28;101540.66;4941937;29;20027;-74
2022/07/20 09:19:00;;;;;;;5.93;3.83;;;;;;;33.14;33.68;101543.63;4955708;29;20059;-74
2022/07/20 09:21:45;;;;;;;3.45;2.42;;;;;;;32.95;33.62;101544.53;4955688;29;20046;-74
2022/07/20 09:24:32;;;;;;;4.40;2.28;;;;;;;33.46;33.25;101539.41;4956383;28;20023;-74
2022/07/20 09:27:18;;;;;;;3.28;2.00;;;;;;;32.39;34.07;101527.47;4955844;29;20047;-74
2022/07/20 09:30:09;;;;;;;2.75;2.00;;;;;;;33.03;34.21;101541.09;4956408;29;20031;-74
2022/07/20 09:32:58;;;;;;;2.70;2.00;;;;;;;32.88;34.06;101532.59;4956315;29;20035;-75
2022/07/20 09:35:47;;;;;;;3.08;2.33;;;;;;;33.48;33.30;101528.41;4943095;29;20122;-75
2022/07/20 09:38:38;;;;;;;5.05;2.08;;;;;;;33.32;33.49;101520.94;4955953;29;20039;-74
2022/07/20 09:41:33;;;;;;;4.20;2.00;;;;;;;33.06;33.16;101514.47;4955813;29;20027;-75
2022/07/20 09:44:24;;;;;;;4.75;1.88;;;;;;;32.31;33.61;101511.06;4955524;28;20035;-75
2022/07/20 09:47:11;;;;;;;4.35;2.58;;;;;;;33.11;33.18;101505.88;4956581;29;20027;-74
2022/07/20 09:49:57;;;;;;;4.72;2.50;;;;;;;34.02;31.62;101512.78;4955587;29;20426;-75
2022/07/20 09:52:43;;;;;;;4.68;2.50;;;;;;;33.78;31.37;101506.25;4955717;29;20045;-74
2022/07/20 09:55:31;;;;;;;2.92;2.10;;;;;;;33.74;31.35;101500.28;4956118;28;20114;-74
2022/07/20 09:58:23;;;;;;;5.15;2.42;;;;;;;33.44;32.26;101494.38;4955748;29;20323;-75
2022/07/20 10:01:09;;;;;;;4.18;2.35;;;;;;;32.62;32.94;101489.97;4956282;29;20046;-75
2022/07/20 10:03:58;;;;;;;3.72;2.40;;;;;;;32.61;31.75;101485.50;4942312;29;20032;-75
2022/07/20 10:06:47;;;;;;;5.55;2.10;;;;;;;32.85;30.57;101477.72;4956295;29;20451;-75
2022/07/20 10:09:32;;;;;;;5.57;2.30;;;;;;;33.40;31.25;101482.09;4955648;29;20071;-74
2022/07/20 10:12:18;;;;;;;4.57;2.15;;;;;;;32.69;31.79;101478.34;4956263;29;20031;-75
2022/07/20 10:15:12;;;;;;;3.97;2.60;;;;;;;33.22;32.14;101470.34;4955362;28;20039;-75
2022/07/20 10:17:59;;;;;;;2.72;2.30;;;;;;;33.39;32.36;101464.94;4955846;29;20043;-75
2022/07/20 10:20:45;;;;;;;3.10;2.15;;;;;;;33.58;32.24;101463.91;4955478;29;20040;-75
2022/07/20 10:23:32;;;;;;;6.45;2.60;;;;;;;33.38;32.18;101459.66;4956471;28;20418;-74
2022/07/20 10:26:25;;;;;;;6.05;2.60;;;;;;;33.05;32.87;101452.16;4954339;28;20130;-75
2022/07/20 10:29:27;;;;;;;4.15;2.20;;;;;;;32.92;33.47;101444.38;4960408;29;20466;-74
2022/07/20 10:32:30;;;;;;;4.07;2.45;;;;;;;32.82;32.77;101432.72;4959516;29;20031;-74
2022/07/20 10:35:30;;;;;;;2.63;2.03;;;;;;;33.01;33.02;101439.88;4959018;28;20094;-74
2022/07/20 10:38:21;;;;;;;3.70;2.10;;;;;;;33.52;33.15;101424.66;4958893;29;20027;-75
2022/07/20 10:44:22;;;;;;;4.45;2.00;;;;;;;32.62;33.41;101422.94;4958617;28;20042;-75
2022/07/20 10:47:43;;;;;;;3.65;2.35;;;;;;;33.18;33.25;101423.59;4958506;29;20028;-74
2022/07/20 10:50:40;;;;;;;2.40;2.15;;;;;;;33.44;32.32;101411.00;4959058;29;20103;-75
2022/07/20 10:53:26;;;;;;;5.03;2.03;;;;;;;33.37;32.41;101411.75;4946426;28;20027;-75
2022/07/20 10:56:12;;;;;;;6.70;2.38;;;;;;;33.16;31.88;101411.19;4958334;29;20446;-74
2022/07/20 10:59:02;;;;;;;6.55;2.58;;;;;;;33.67;31.95;101404.03;4959443;29;20130;-75
2022/07/20 11:01:48;;;;;;;3.20;2.42;;;;;;;33.86;32.02;101401.16;4958448;29;20043;-75
2022/07/20 11:04:42;;;;;;;3.40;2.05;;;;;;;34.33;31.75;101396.19;4959240;28;20034;-75
2022/07/20 11:07:34;;;;;;;16.40;3.08;;;;;;;33.81;31.81;101392.59;4969574;29;20053;-75
2022/07/20 11:10:27;;;;;;;3.55;2.30;;;;;;;33.71;31.44;101396.44;4959883;29;20421;-75
2022/07/20 11:13:13;;;;;;;4.93;2.17;;;;;;;33.79;31.90;101380.16;4958538;28;20442;-75
2022/07/20 11:16:01;;;;;;;5.35;2.30;;;;;;;34.07;31.53;101384.47;4958274;29;20046;-74
2022/07/20 11:18:48;;;;;;;4.82;2.20;;;;;;;33.23;32.46;101380.53;4959261;29;20118;-74
2022/07/20 11:21:40;;;;;;;4.72;2.35;;;;;;;33.39;32.49;101379.88;4959309;29;20461;-75
2022/07/20 11:24:29;;;;;;;8.40;2.30;;;;;;;34.20;31.87;101380.25;4945855;29;20035;-73
2022/07/20 11:27:16;;;;;;;4.28;2.33;;;;;;;34.17;31.71;101374.28;4958569;29;20363;-73
2022/07/20 11:30:06;;;;;;;4.82;2.20;;;;;;;34.99;30.41;101372.59;4957773;29;20078;-73
2022/07/20 11:32:54;;;;;;;4.75;2.38;;;;;;;34.88;30.00;101368.31;4957810;29;20038;-73
2022/07/20 11:35:39;;;;;;;3.33;2.10;;;;;;;34.06;30.95;101358.25;4959175;28;20110;-73
2022/07/20 11:38:42;;;;;;;4.90;2.50;;;;;;;33.73;31.03;101354.47;4943961;29;20038;-73
2022/07/20 11:41:27;;;;;;;4.60;2.75;;;;;;;34.55;30.50;101352.06;4957561;29;20442;-74
2022/07/20 11:44:20;;;;;;;3.63;2.45;;;;;;;34.21;30.45;101353.91;4957001;28;20126;-73
2022/07/20 11:47:06;;;;;;;6.22;2.85;;;;;;;34.61;29.85;101349.50;4958064;29;20044;-74
2022/07/20 11:50:09;;;;;;;3.42;2.45;;;;;;;34.45;30.52;101349.47;4956733;29;20425;-72
2022/07/20 11:52:54;;;;;;;4.72;2.47;;;;;;;34.33;30.48;101348.06;4945101;28;20027;-72
2022/07/20 11:55:40;;;;;;;4.90;2.90;;;;;;;34.99;30.06;101339.88;4944262;29;20027;-73
2022/07/20 11:58:28;;;;;;;6.30;2.50;;;;;;;34.83;30.32;101332.56;4958115;29;20373;-72
2022/07/20 12:01:19;;;;;;;4.60;2.60;;;;;;;34.94;30.54;101340.41;4957225;29;20027;-72
2022/07/20 12:04:08;;;;;;;4.57;2.65;;;;;;;34.43;30.63;101331.59;4945092;28;20114;-72
2022/07/20 12:06:55;;;;;;;5.43;2.70;;;;;;;34.96;30.01;101340.25;4957557;29;20042;-73
2022/07/20 12:09:41;;;;;;;5.95;3.00;;;;;;;34.83;29.86;101329.84;4943668;29;20019;-73
2022/07/20 12:12:47;;;;;;;4.88;2.90;;;;;;;34.86;30.04;101320.47;4957948;29;20035;-73
2022/07/20 12:15:33;;;;;;;5.15;2.40;;;;;;;34.51;30.18;101323.44;4957218;29;20535;-73
2022/07/20 12:18:44;;;;;;;4.32;3.00;;;;;;;35.09;29.89;101316.06;4956465;29;20113;-73
2022/07/20 12:21:42;;;;;;;6.35;2.97;;;;;;;34.49;29.77;101317.31;4956646;29;20454;-73
2022/07/20 12:24:28;;;;;;;6.45;2.60;;;;;;;35.21;29.18;101309.25;4942790;29;20387;-73
2022/07/20 12:27:14;;;;;;;4.38;2.80;;;;;;;35.48;29.28;101299.91;4956713;29;20051;-73
2022/07/20 12:30:20;;;;;;;4.47;3.05;;;;;;;35.56;28.88;101305.34;4956895;29;20015;-73
2022/07/20 12:33:12;;;;;;;7.53;3.40;;;;;;;35.63;28.95;101304.47;4942682;29;20042;-74
2022/07/20 12:36:04;;;;;;;6.88;2.75;;;;;;;35.58;29.24;101295.09;4957237;29;20089;-73
2022/07/20 12:38:50;;;;;;;4.38;2.72;;;;;;;34.14;30.46;101296.56;4956066;29;20359;-73
2022/07/20 12:41:37;;;;;;;5.43;2.85;;;;;;;34.95;29.79;101292.22;4956844;29;20131;-74
2022/07/20 12:44:27;;;;;;;4.72;2.72;;;;;;;34.54;30.15;101272.25;4956388;28;20042;-73
2022/07/20 12:47:15;;;;;;;6.68;2.55;;;;;;;35.29;29.41;101278.44;4956941;29;20042;-74
2022/07/20 12:50:00;;;;;;;6.60;3.08;;;;;;;35.45;29.15;101270.25;4943066;28;20493;-73
2022/07/20 12:52:46;;;;;;;6.82;2.90;;;;;;;34.79;29.28;101279.41;4957272;29;20046;-72
2022/07/20 12:55:32;;;;;;;3.95;2.95;;;;;;;35.39;29.08;101266.34;4956141;29;20111;-72
2022/07/20 12:58:18;;;;;;;4.63;2.65;;;;;;;34.87;29.47;101264.97;4957000;29;20031;-77
2022/07/20 13:01:05;;;;;;;4.43;2.70;;;;;;;35.18;29.17;101261.41;4956439;29;20042;-73
2022/07/20 13:03:50;;;;;;;7.60;3.08;;;;;;;35.62;28.83;101255.53;4957273;28;20042;-73